PWSweather.com
Personal Weather Stations
Station Observations
KMIEASTT1
Tawas Bay, East Tawas, MI 48730

Tawas BayEast Tawas, MI 48730

Lat: 44.28, Lon: -83.48

Elevation: 600

Station Type: Davis VantagePro

http://www.tawasbayweather.com

High Low Average
Temperature 45.3°F7.4°C 19.7°F-6.8°C 29.7°F-1.3°C
Dew Point 39.5°F4.2°C 17.8°F-7.9°C 27.5°F-2.5°C
Winds 8.0 mph 12.9 kmh Calm Calm 3.0 mph E4.8 kmh E
Wind Gusts 18.0 mph29.0 kmh -- 5.0 mph8.0 kmh
Humidity 95% 80% 92%
Pressure 29.93 in1013.5 mb 29.72 in1006.4 mb -
Precipitation 0.00 in0.0 mm - -
Hour Temp Dew Point Humidity Winds Wind Gusts Pressure Precip Precip Rate Daily Precip Total
12:02 AM 26.8°F-2.9°C 23.7°F-4.6°C 88% 2.0 mph E3.2 kmh E 2.0 mph3.2 kmh 29.93 in1013.5 mb 0.01 in0.3 mm 0.30 in/hr7.6 mm/hr 0.01 in0.3 mm
12:16 AM 25.4°F-3.7°C 22.9°F-5.1°C 90% 2.0 mph E3.2 kmh E 2.0 mph3.2 kmh 29.93 in1013.5 mb 0.01 in0.3 mm 0.00 in/hr0.0 mm/hr 0.01 in0.3 mm
12:31 AM 24.8°F-4.0°C 23.1°F-4.9°C 93% 1.0 mph NE1.6 kmh NE 3.0 mph4.8 kmh 29.94 in1013.9 mb 0.01 in0.3 mm 0.00 in/hr0.0 mm/hr 0.01 in0.3 mm
12:46 AM 24.5°F-4.2°C 22.8°F-5.1°C 93% 1.0 mph NE1.6 kmh NE 3.0 mph4.8 kmh 29.93 in1013.5 mb 0.01 in0.3 mm 0.00 in/hr0.0 mm/hr 0.01 in0.3 mm
01:03 AM 23.8°F-4.6°C 22.1°F-5.5°C 93% 2.0 mph NE3.2 kmh NE 3.0 mph4.8 kmh 29.93 in1013.5 mb 0.00 in0.0 mm 0.00 in/hr0.0 mm/hr 0.01 in0.3 mm
01:15 AM 23.7°F-4.6°C 22.0°F-5.6°C 93% 1.0 mph NE1.6 kmh NE 2.0 mph3.2 kmh 29.93 in1013.5 mb 0.00 in0.0 mm 0.00 in/hr0.0 mm/hr 0.01 in0.3 mm
01:46 AM 23.4°F-4.8°C 21.7°F-5.7°C 93% Calm Calm 1.0 mph1.6 kmh 29.91 in1012.9 mb 0.00 in0.0 mm 0.00 in/hr0.0 mm/hr 0.01 in0.3 mm
02:16 AM 22.0°F-5.6°C 20.0°F-6.7°C 92% 2.0 mph N3.2 kmh N 3.0 mph4.8 kmh 29.91 in1012.9 mb 0.00 in0.0 mm 0.00 in/hr0.0 mm/hr 0.01 in0.3 mm
02:46 AM 21.5°F-5.8°C 20.0°F-6.7°C 94% 1.0 mph NNE1.6 kmh NNE 3.0 mph4.8 kmh 29.91 in1012.9 mb 0.00 in0.0 mm 0.00 in/hr0.0 mm/hr 0.01 in0.3 mm
03:02 AM 20.6°F-6.3°C 18.9°F-7.3°C 93% 3.0 mph NNE4.8 kmh NNE 4.0 mph6.4 kmh 29.91 in1012.9 mb 0.00 in0.0 mm 0.00 in/hr0.0 mm/hr 0.01 in0.3 mm
03:16 AM 20.6°F-6.3°C 18.9°F-7.3°C 93% 2.0 mph N3.2 kmh N 4.0 mph6.4 kmh 29.91 in1012.9 mb 0.00 in0.0 mm 0.00 in/hr0.0 mm/hr 0.01 in0.3 mm
03:31 AM 21.3°F-5.9°C 20.1°F-6.6°C 95% Calm Calm 2.0 mph3.2 kmh 29.91 in1012.9 mb 0.00 in0.0 mm 0.00 in/hr0.0 mm/hr 0.01 in0.3 mm
03:45 AM 22.1°F-5.5°C 20.6°F-6.3°C 94% 2.0 mph N3.2 kmh N 3.0 mph4.8 kmh 29.91 in1012.9 mb 0.00 in0.0 mm 0.00 in/hr0.0 mm/hr 0.01 in0.3 mm
04:30 AM 22.1°F-5.5°C 20.6°F-6.3°C 94% 1.0 mph N1.6 kmh N 2.0 mph3.2 kmh 29.90 in1012.5 mb 0.00 in0.0 mm 0.00 in/hr0.0 mm/hr 0.01 in0.3 mm
04:45 AM 21.2°F-6.0°C 19.2°F-7.1°C 92% 2.0 mph NE3.2 kmh NE 3.0 mph4.8 kmh 29.90 in1012.5 mb 0.00 in0.0 mm 0.00 in/hr0.0 mm/hr 0.01 in0.3 mm
05:01 AM 21.9°F-5.6°C 20.7°F-6.3°C 95% 3.0 mph NE4.8 kmh NE 3.0 mph4.8 kmh 29.90 in1012.5 mb 0.00 in0.0 mm 0.00 in/hr0.0 mm/hr 0.01 in0.3 mm
05:16 AM 21.6°F-5.8°C 19.9°F-6.7°C 93% Calm Calm 3.0 mph4.8 kmh 29.90 in1012.5 mb 0.00 in0.0 mm 0.00 in/hr0.0 mm/hr 0.01 in0.3 mm
05:31 AM 21.7°F-5.7°C 20.2°F-6.6°C 94% Calm Calm 1.0 mph1.6 kmh 29.90 in1012.5 mb 0.00 in0.0 mm 0.00 in/hr0.0 mm/hr 0.01 in0.3 mm
05:46 AM 21.4°F-5.9°C 19.7°F-6.8°C 93% 2.0 mph NE3.2 kmh NE 3.0 mph4.8 kmh 29.90 in1012.5 mb 0.00 in0.0 mm 0.00 in/hr0.0 mm/hr 0.01 in0.3 mm
06:02 AM 21.5°F-5.8°C 19.8°F-6.8°C 93% Calm Calm -- 29.89 in1012.2 mb 0.00 in0.0 mm 0.00 in/hr0.0 mm/hr 0.01 in0.3 mm
06:15 AM 21.3°F-5.9°C 19.3°F-7.1°C 92% Calm Calm -- 29.89 in1012.2 mb 0.00 in0.0 mm 0.00 in/hr0.0 mm/hr 0.01 in0.3 mm
06:30 AM 21.3°F-5.9°C 19.1°F-7.2°C 91% 3.0 mph NE4.8 kmh NE 3.0 mph4.8 kmh 29.90 in1012.5 mb 0.00 in0.0 mm 0.00 in/hr0.0 mm/hr 0.01 in0.3 mm
07:15 AM 21.0°F-6.1°C 19.1°F-7.2°C 92% Calm Calm -- 29.90 in1012.5 mb 0.00 in0.0 mm 0.00 in/hr0.0 mm/hr 0.01 in0.3 mm
08:30 AM 19.7°F-6.8°C 17.8°F-7.9°C 92% 3.0 mph NE4.8 kmh NE 3.0 mph4.8 kmh 29.87 in1011.5 mb 0.00 in0.0 mm 0.00 in/hr0.0 mm/hr 0.01 in0.3 mm
08:46 AM 21.0°F-6.1°C 19.8°F-6.8°C 95% 1.0 mph NE1.6 kmh NE 2.0 mph3.2 kmh 29.87 in1011.5 mb 0.00 in0.0 mm 0.00 in/hr0.0 mm/hr 0.01 in0.3 mm
09:15 AM 21.2°F-6.0°C 19.2°F-7.1°C 92% 1.0 mph NE1.6 kmh NE 2.0 mph3.2 kmh 29.87 in1011.5 mb 0.00 in0.0 mm 0.00 in/hr0.0 mm/hr 0.01 in0.3 mm
09:30 AM 21.3°F-5.9°C 19.1°F-7.2°C 91% 2.0 mph NE3.2 kmh NE 3.0 mph4.8 kmh 29.87 in1011.5 mb 0.00 in0.0 mm 0.00 in/hr0.0 mm/hr 0.01 in0.3 mm
10:31 AM 24.9°F-3.9°C 21.6°F-5.8°C 87% Calm Calm -- 29.86 in1011.2 mb 0.00 in0.0 mm 0.00 in/hr0.0 mm/hr 0.01 in0.3 mm
12:15 PM 31.8°F-0.1°C 29.5°F-1.4°C 91% 2.0 mph SE3.2 kmh SE 3.0 mph4.8 kmh 29.84 in1010.5 mb 0.00 in0.0 mm 0.00 in/hr0.0 mm/hr 0.01 in0.3 mm
12:31 PM 31.4°F-0.3°C 29.6°F-1.3°C 93% 2.0 mph SE3.2 kmh SE 3.0 mph4.8 kmh 29.84 in1010.5 mb 0.00 in0.0 mm 0.00 in/hr0.0 mm/hr 0.01 in0.3 mm
12:46 PM 31.9°F-0.1°C 30.1°F-1.1°C 93% 2.0 mph SE3.2 kmh SE 3.0 mph4.8 kmh 29.83 in1010.2 mb 0.00 in0.0 mm 0.00 in/hr0.0 mm/hr 0.01 in0.3 mm
01:02 PM 32.8°F0.4°C 31.3°F-0.4°C 94% 3.0 mph S4.8 kmh S 4.0 mph6.4 kmh 29.82 in1009.8 mb 0.00 in0.0 mm 0.00 in/hr0.0 mm/hr 0.01 in0.3 mm
01:46 PM 34.3°F1.3°C 32.5°F0.3°C 93% 3.0 mph SSE4.8 kmh SSE 5.0 mph8.0 kmh 29.80 in1009.1 mb 0.00 in0.0 mm 0.00 in/hr0.0 mm/hr 0.01 in0.3 mm
02:31 PM 35.9°F2.2°C 33.5°F0.8°C 91% 5.0 mph SSE8.0 kmh SSE 6.0 mph9.7 kmh 29.77 in1008.1 mb 0.00 in0.0 mm 0.00 in/hr0.0 mm/hr 0.01 in0.3 mm
02:46 PM 35.4°F1.9°C 33.3°F0.7°C 92% 4.0 mph S6.4 kmh S 6.0 mph9.7 kmh 29.77 in1008.1 mb 0.00 in0.0 mm 0.00 in/hr0.0 mm/hr 0.01 in0.3 mm
03:15 PM 36.4°F2.4°C 34.3°F1.3°C 92% 5.0 mph S8.0 kmh S 7.0 mph11.3 kmh 29.75 in1007.5 mb 0.00 in0.0 mm 0.00 in/hr0.0 mm/hr 0.01 in0.3 mm
03:31 PM 36.8°F2.7°C 34.7°F1.5°C 92% 4.0 mph S6.4 kmh S 9.0 mph14.5 kmh 29.74 in1007.1 mb 0.00 in0.0 mm 0.00 in/hr0.0 mm/hr 0.01 in0.3 mm
03:46 PM 37.1°F2.8°C 34.7°F1.5°C 91% 5.0 mph S8.0 kmh S 8.0 mph12.9 kmh 29.74 in1007.1 mb 0.00 in0.0 mm 0.00 in/hr0.0 mm/hr 0.01 in0.3 mm
04:02 PM 36.9°F2.7°C 34.5°F1.4°C 91% 6.0 mph S9.7 kmh S 9.0 mph14.5 kmh 29.73 in1006.8 mb 0.00 in0.0 mm 0.00 in/hr0.0 mm/hr 0.01 in0.3 mm
04:16 PM 37.5°F3.1°C 35.1°F1.7°C 91% 7.0 mph S11.3 kmh S 9.0 mph14.5 kmh 29.73 in1006.8 mb 0.00 in0.0 mm 0.00 in/hr0.0 mm/hr 0.01 in0.3 mm
04:30 PM 37.5°F3.1°C 34.8°F1.6°C 90% 8.0 mph S12.9 kmh S 10.0 mph16.1 kmh 29.73 in1006.8 mb 0.00 in0.0 mm 0.00 in/hr0.0 mm/hr 0.01 in0.3 mm
04:46 PM 38.2°F3.4°C 35.5°F1.9°C 90% 7.0 mph S11.3 kmh S 9.0 mph14.5 kmh 29.72 in1006.4 mb 0.00 in0.0 mm 0.00 in/hr0.0 mm/hr 0.01 in0.3 mm
05:02 PM 38.6°F3.7°C 35.6°F2.0°C 89% 4.0 mph S6.4 kmh S 8.0 mph12.9 kmh 29.72 in1006.4 mb 0.00 in0.0 mm 0.00 in/hr0.0 mm/hr 0.01 in0.3 mm
05:16 PM 39.2°F4.0°C 36.2°F2.3°C 89% 7.0 mph S11.3 kmh S 7.0 mph11.3 kmh 29.72 in1006.4 mb 0.00 in0.0 mm 0.00 in/hr0.0 mm/hr 0.01 in0.3 mm
05:31 PM 39.5°F4.2°C 36.3°F2.4°C 88% 5.0 mph S8.0 kmh S 7.0 mph11.3 kmh 29.72 in1006.4 mb 0.00 in0.0 mm 0.00 in/hr0.0 mm/hr 0.01 in0.3 mm
05:46 PM 39.2°F4.0°C 36.2°F2.3°C 89% 6.0 mph S9.7 kmh S 7.0 mph11.3 kmh 29.72 in1006.4 mb 0.00 in0.0 mm 0.00 in/hr0.0 mm/hr 0.01 in0.3 mm
06:02 PM 38.3°F3.5°C 35.6°F2.0°C 90% 6.0 mph S9.7 kmh S 8.0 mph12.9 kmh 29.72 in1006.4 mb 0.00 in0.0 mm 0.00 in/hr0.0 mm/hr 0.01 in0.3 mm
06:16 PM 38.5°F3.6°C 35.8°F2.1°C 90% 6.0 mph S9.7 kmh S 9.0 mph14.5 kmh 29.72 in1006.4 mb 0.00 in0.0 mm 0.00 in/hr0.0 mm/hr 0.01 in0.3 mm
06:31 PM 38.9°F3.8°C 36.5°F2.5°C 91% 4.0 mph WSW6.4 kmh WSW 7.0 mph11.3 kmh 29.73 in1006.8 mb 0.00 in0.0 mm 0.00 in/hr0.0 mm/hr 0.01 in0.3 mm
06:46 PM 41.6°F5.3°C 38.9°F3.8°C 90% 7.0 mph SW11.3 kmh SW 13.0 mph20.9 kmh 29.73 in1006.8 mb 0.00 in0.0 mm 0.00 in/hr0.0 mm/hr 0.01 in0.3 mm
07:02 PM 45.3°F7.4°C 39.5°F4.2°C 80% 7.0 mph S11.3 kmh S 18.0 mph29.0 kmh 29.73 in1006.8 mb 0.00 in0.0 mm 0.00 in/hr0.0 mm/hr 0.01 in0.3 mm
07:17 PM 39.5°F4.2°C 36.3°F2.4°C 88% 6.0 mph S9.7 kmh S 8.0 mph12.9 kmh 29.73 in1006.8 mb 0.00 in0.0 mm 0.00 in/hr0.0 mm/hr 0.01 in0.3 mm
07:31 PM 38.3°F3.5°C 35.6°F2.0°C 90% 6.0 mph SSE9.7 kmh SSE 7.0 mph11.3 kmh 29.73 in1006.8 mb 0.00 in0.0 mm 0.00 in/hr0.0 mm/hr 0.01 in0.3 mm
07:46 PM 37.7°F3.2°C 35.3°F1.8°C 91% 6.0 mph SSE9.7 kmh SSE 7.0 mph11.3 kmh 29.72 in1006.4 mb 0.00 in0.0 mm 0.00 in/hr0.0 mm/hr 0.01 in0.3 mm